<?xml version="1.0" encoding="UTF-8" standalone="no" ?>
<gpx xmlns="http://www.topografix.com/GPX/1/1" xmlns:xsi="http://www.w3.org/2001/XMLSchema-instance" xsi:schemaLocation="http://www.topografix.com/GPX/1/1 http://www.topografix.com/GPX/1/1/gpx.xsd" version="1.1" creator="VisuGPX - https://www.visugpx.com">
  <metadata>
    <name>Descente ski bernazou</name>
    <desc><![CDATA[Descente ski bernazou
Descente ski bernazou
Descente ski bernazou]]></desc>
  </metadata>
  <trk>
    <name><![CDATA[Trk1306-S1-S2]]></name>
    <trkseg>
      <trkpt lat="42.86705" lon="-0.07857">
        <ele>2485</ele>
        <time>2010-03-15T15:38:50Z</time>
      </trkpt>
      <trkpt lat="42.86638" lon="-0.07862">
        <ele>2475</ele>
        <time>2010-03-15T15:43:13Z</time>
      </trkpt>
      <trkpt lat="42.86568" lon="-0.0784">
        <ele>2465</ele>
        <time>2010-03-15T15:43:33Z</time>
      </trkpt>
      <trkpt lat="42.86513" lon="-0.0781">
        <ele>2451</ele>
        <time>2010-03-15T15:43:49Z</time>
      </trkpt>
      <trkpt lat="42.86482" lon="-0.07733">
        <ele>2441</ele>
        <time>2010-03-15T15:44:00Z</time>
      </trkpt>
      <trkpt lat="42.86477" lon="-0.0768">
        <ele>2433</ele>
        <time>2010-03-15T15:44:13Z</time>
      </trkpt>
      <trkpt lat="42.86473" lon="-0.07633">
        <ele>2426</ele>
        <time>2010-03-15T15:44:24Z</time>
      </trkpt>
      <trkpt lat="42.86485" lon="-0.07608">
        <ele>2415</ele>
        <time>2010-03-15T15:44:31Z</time>
      </trkpt>
      <trkpt lat="42.86483" lon="-0.07533">
        <ele>2403</ele>
        <time>2010-03-15T15:44:46Z</time>
      </trkpt>
      <trkpt lat="42.86498" lon="-0.07455">
        <ele>2386</ele>
        <time>2010-03-15T15:45:04Z</time>
      </trkpt>
      <trkpt lat="42.86528" lon="-0.07417">
        <ele>2373</ele>
        <time>2010-03-15T15:45:13Z</time>
      </trkpt>
      <trkpt lat="42.86553" lon="-0.07395">
        <ele>2365</ele>
        <time>2010-03-15T15:45:20Z</time>
      </trkpt>
      <trkpt lat="42.8657" lon="-0.07372">
        <ele>2353</ele>
        <time>2010-03-15T15:46:13Z</time>
      </trkpt>
      <trkpt lat="42.8658" lon="-0.07333">
        <ele>2340</ele>
        <time>2010-03-15T15:46:19Z</time>
      </trkpt>
      <trkpt lat="42.86585" lon="-0.07273">
        <ele>2333</ele>
        <time>2010-03-15T15:46:31Z</time>
      </trkpt>
      <trkpt lat="42.86563" lon="-0.07188">
        <ele>2319</ele>
        <time>2010-03-15T15:46:55Z</time>
      </trkpt>
      <trkpt lat="42.86585" lon="-0.07092">
        <ele>2301</ele>
        <time>2010-03-15T15:47:08Z</time>
      </trkpt>
      <trkpt lat="42.86598" lon="-0.07055">
        <ele>2294</ele>
        <time>2010-03-15T15:47:13Z</time>
      </trkpt>
      <trkpt lat="42.86607" lon="-0.07008">
        <ele>2290</ele>
        <time>2010-03-15T15:47:21Z</time>
      </trkpt>
      <trkpt lat="42.86597" lon="-0.06955">
        <ele>2287</ele>
        <time>2010-03-15T15:47:59Z</time>
      </trkpt>
      <trkpt lat="42.86583" lon="-0.06917">
        <ele>2282</ele>
        <time>2010-03-15T15:48:15Z</time>
      </trkpt>
      <trkpt lat="42.86575" lon="-0.06875">
        <ele>2274</ele>
        <time>2010-03-15T15:49:52Z</time>
      </trkpt>
      <trkpt lat="42.86567" lon="-0.06848">
        <ele>2266</ele>
        <time>2010-03-15T15:49:59Z</time>
      </trkpt>
      <trkpt lat="42.86542" lon="-0.0679">
        <ele>2252</ele>
        <time>2010-03-15T15:50:13Z</time>
      </trkpt>
      <trkpt lat="42.86515" lon="-0.06757">
        <ele>2244</ele>
        <time>2010-03-15T15:50:26Z</time>
      </trkpt>
      <trkpt lat="42.86517" lon="-0.06723">
        <ele>2230</ele>
        <time>2010-03-15T15:50:32Z</time>
      </trkpt>
      <trkpt lat="42.86517" lon="-0.06692">
        <ele>2221</ele>
        <time>2010-03-15T15:50:37Z</time>
      </trkpt>
      <trkpt lat="42.8652" lon="-0.06657">
        <ele>2211</ele>
        <time>2010-03-15T15:50:42Z</time>
      </trkpt>
      <trkpt lat="42.86525" lon="-0.06633">
        <ele>2205</ele>
        <time>2010-03-15T15:50:55Z</time>
      </trkpt>
      <trkpt lat="42.86523" lon="-0.06582">
        <ele>2199</ele>
        <time>2010-03-15T15:51:05Z</time>
      </trkpt>
      <trkpt lat="42.86517" lon="-0.0654">
        <ele>2183</ele>
        <time>2010-03-15T15:51:34Z</time>
      </trkpt>
      <trkpt lat="42.86498" lon="-0.06493">
        <ele>2171</ele>
        <time>2010-03-15T15:51:43Z</time>
      </trkpt>
      <trkpt lat="42.86472" lon="-0.06468">
        <ele>2164</ele>
        <time>2010-03-15T15:51:50Z</time>
      </trkpt>
      <trkpt lat="42.86448" lon="-0.06442">
        <ele>2155</ele>
        <time>2010-03-15T15:51:56Z</time>
      </trkpt>
      <trkpt lat="42.86423" lon="-0.06388">
        <ele>2139</ele>
        <time>2010-03-15T15:52:04Z</time>
      </trkpt>
      <trkpt lat="42.86413" lon="-0.06345">
        <ele>2135</ele>
        <time>2010-03-15T15:53:12Z</time>
      </trkpt>
      <trkpt lat="42.86435" lon="-0.0623">
        <ele>2110</ele>
        <time>2010-03-15T15:53:29Z</time>
      </trkpt>
      <trkpt lat="42.86442" lon="-0.06175">
        <ele>2102</ele>
        <time>2010-03-15T15:53:37Z</time>
      </trkpt>
      <trkpt lat="42.8643" lon="-0.06127">
        <ele>2092</ele>
        <time>2010-03-15T15:53:45Z</time>
      </trkpt>
      <trkpt lat="42.86435" lon="-0.0608">
        <ele>2082</ele>
        <time>2010-03-15T15:54:06Z</time>
      </trkpt>
      <trkpt lat="42.8639" lon="-0.06017">
        <ele>2071</ele>
        <time>2010-03-15T15:54:27Z</time>
      </trkpt>
      <trkpt lat="42.86405" lon="-0.06002">
        <ele>2068</ele>
        <time>2010-03-15T15:55:00Z</time>
      </trkpt>
      <trkpt lat="42.8641" lon="-0.05957">
        <ele>2061</ele>
        <time>2010-03-15T15:56:30Z</time>
      </trkpt>
      <trkpt lat="42.86403" lon="-0.05912">
        <ele>2055</ele>
        <time>2010-03-15T15:56:39Z</time>
      </trkpt>
      <trkpt lat="42.8639" lon="-0.05872">
        <ele>2049</ele>
        <time>2010-03-15T15:56:49Z</time>
      </trkpt>
      <trkpt lat="42.86377" lon="-0.05835">
        <ele>2039</ele>
        <time>2010-03-15T15:57:52Z</time>
      </trkpt>
      <trkpt lat="42.86357" lon="-0.05803">
        <ele>2036</ele>
        <time>2010-03-15T15:58:03Z</time>
      </trkpt>
      <trkpt lat="42.8634" lon="-0.05797">
        <ele>2033</ele>
        <time>2010-03-15T15:58:40Z</time>
      </trkpt>
      <trkpt lat="42.86337" lon="-0.05753">
        <ele>2016</ele>
        <time>2010-03-15T15:58:48Z</time>
      </trkpt>
      <trkpt lat="42.8638" lon="-0.05718">
        <ele>2004</ele>
        <time>2010-03-15T15:58:56Z</time>
      </trkpt>
      <trkpt lat="42.86435" lon="-0.05715">
        <ele>1992</ele>
        <time>2010-03-15T15:59:21Z</time>
      </trkpt>
      <trkpt lat="42.86533" lon="-0.05702">
        <ele>1969</ele>
        <time>2010-03-15T15:59:38Z</time>
      </trkpt>
      <trkpt lat="42.8656" lon="-0.05685">
        <ele>1965</ele>
        <time>2010-03-15T15:59:44Z</time>
      </trkpt>
      <trkpt lat="42.86597" lon="-0.05682">
        <ele>1958</ele>
        <time>2010-03-15T15:59:51Z</time>
      </trkpt>
      <trkpt lat="42.86623" lon="-0.0566">
        <ele>1951</ele>
        <time>2010-03-15T16:00:06Z</time>
      </trkpt>
      <trkpt lat="42.86642" lon="-0.05658">
        <ele>1944</ele>
        <time>2010-03-15T16:00:21Z</time>
      </trkpt>
      <trkpt lat="42.86672" lon="-0.05623">
        <ele>1934</ele>
        <time>2010-03-15T16:00:32Z</time>
      </trkpt>
      <trkpt lat="42.86697" lon="-0.05587">
        <ele>1927</ele>
        <time>2010-03-15T16:01:02Z</time>
      </trkpt>
      <trkpt lat="42.86713" lon="-0.0557">
        <ele>1918</ele>
        <time>2010-03-15T16:01:09Z</time>
      </trkpt>
      <trkpt lat="42.86722" lon="-0.05552">
        <ele>1912</ele>
        <time>2010-03-15T16:01:36Z</time>
      </trkpt>
      <trkpt lat="42.86775" lon="-0.05518">
        <ele>1875</ele>
        <time>2010-03-15T16:01:49Z</time>
      </trkpt>
      <trkpt lat="42.86802" lon="-0.05513">
        <ele>1861</ele>
        <time>2010-03-15T16:01:54Z</time>
      </trkpt>
      <trkpt lat="42.86822" lon="-0.05483">
        <ele>1846</ele>
        <time>2010-03-15T16:02:00Z</time>
      </trkpt>
      <trkpt lat="42.86845" lon="-0.0547">
        <ele>1832</ele>
        <time>2010-03-15T16:02:06Z</time>
      </trkpt>
      <trkpt lat="42.869" lon="-0.05448">
        <ele>1800</ele>
        <time>2010-03-15T16:02:16Z</time>
      </trkpt>
      <trkpt lat="42.86915" lon="-0.05437">
        <ele>1791</ele>
        <time>2010-03-15T16:04:17Z</time>
      </trkpt>
      <trkpt lat="42.86928" lon="-0.05387">
        <ele>1780</ele>
        <time>2010-03-15T16:04:27Z</time>
      </trkpt>
      <trkpt lat="42.86935" lon="-0.0535">
        <ele>1771</ele>
        <time>2010-03-15T16:04:34Z</time>
      </trkpt>
      <trkpt lat="42.86973" lon="-0.0529">
        <ele>1745</ele>
        <time>2010-03-15T16:04:44Z</time>
      </trkpt>
      <trkpt lat="42.86988" lon="-0.05267">
        <ele>1734</ele>
        <time>2010-03-15T16:04:49Z</time>
      </trkpt>
      <trkpt lat="42.87023" lon="-0.0528">
        <ele>1724</ele>
        <time>2010-03-15T16:05:16Z</time>
      </trkpt>
      <trkpt lat="42.87063" lon="-0.05298">
        <ele>1712</ele>
        <time>2010-03-15T16:05:34Z</time>
      </trkpt>
      <trkpt lat="42.8709" lon="-0.05328">
        <ele>1697</ele>
        <time>2010-03-15T16:06:24Z</time>
      </trkpt>
      <trkpt lat="42.87112" lon="-0.05343">
        <ele>1691</ele>
        <time>2010-03-15T16:06:30Z</time>
      </trkpt>
      <trkpt lat="42.87137" lon="-0.0534">
        <ele>1679</ele>
        <time>2010-03-15T16:06:38Z</time>
      </trkpt>
      <trkpt lat="42.87148" lon="-0.05358">
        <ele>1671</ele>
        <time>2010-03-15T16:06:49Z</time>
      </trkpt>
      <trkpt lat="42.87177" lon="-0.05352">
        <ele>1652</ele>
        <time>2010-03-15T16:07:06Z</time>
      </trkpt>
      <trkpt lat="42.87187" lon="-0.05322">
        <ele>1645</ele>
        <time>2010-03-15T16:07:12Z</time>
      </trkpt>
      <trkpt lat="42.87207" lon="-0.05322">
        <ele>1639</ele>
        <time>2010-03-15T16:07:49Z</time>
      </trkpt>
      <trkpt lat="42.87235" lon="-0.0532">
        <ele>1621</ele>
        <time>2010-03-15T16:08:01Z</time>
      </trkpt>
      <trkpt lat="42.87255" lon="-0.05322">
        <ele>1608</ele>
        <time>2010-03-15T16:08:09Z</time>
      </trkpt>
      <trkpt lat="42.87265" lon="-0.0528">
        <ele>1594</ele>
        <time>2010-03-15T16:08:21Z</time>
      </trkpt>
      <trkpt lat="42.87275" lon="-0.05232">
        <ele>1590</ele>
        <time>2010-03-15T16:08:38Z</time>
      </trkpt>
      <trkpt lat="42.87265" lon="-0.05217">
        <ele>1588</ele>
        <time>2010-03-15T16:09:28Z</time>
      </trkpt>
      <trkpt lat="42.87302" lon="-0.05278">
        <ele>1581</ele>
        <time>2010-03-15T16:10:05Z</time>
      </trkpt>
      <trkpt lat="42.87322" lon="-0.05333">
        <ele>1571</ele>
        <time>2010-03-15T16:10:21Z</time>
      </trkpt>
      <trkpt lat="42.87342" lon="-0.05335">
        <ele>1567</ele>
        <time>2010-03-15T16:10:48Z</time>
      </trkpt>
      <trkpt lat="42.87373" lon="-0.0534">
        <ele>1564</ele>
        <time>2010-03-15T16:11:21Z</time>
      </trkpt>
      <trkpt lat="42.87392" lon="-0.05332">
        <ele>1562</ele>
        <time>2010-03-15T16:11:37Z</time>
      </trkpt>
      <trkpt lat="42.87413" lon="-0.05323">
        <ele>1559</ele>
        <time>2010-03-15T16:11:56Z</time>
      </trkpt>
      <trkpt lat="42.87433" lon="-0.0531">
        <ele>1558</ele>
        <time>2010-03-15T16:13:56Z</time>
      </trkpt>
      <trkpt lat="42.87448" lon="-0.05288">
        <ele>1557</ele>
        <time>2010-03-15T16:14:18Z</time>
      </trkpt>
      <trkpt lat="42.8747" lon="-0.05258">
        <ele>1554</ele>
        <time>2010-03-15T16:14:41Z</time>
      </trkpt>
      <trkpt lat="42.87488" lon="-0.05235">
        <ele>1550</ele>
        <time>2010-03-15T16:14:59Z</time>
      </trkpt>
      <trkpt lat="42.87505" lon="-0.052">
        <ele>1549</ele>
        <time>2010-03-15T16:15:21Z</time>
      </trkpt>
      <trkpt lat="42.87518" lon="-0.05177">
        <ele>1544</ele>
        <time>2010-03-15T16:15:40Z</time>
      </trkpt>
      <trkpt lat="42.87538" lon="-0.0512">
        <ele>1536</ele>
        <time>2010-03-15T16:16:22Z</time>
      </trkpt>
      <trkpt lat="42.87547" lon="-0.0509">
        <ele>1532</ele>
        <time>2010-03-15T16:16:48Z</time>
      </trkpt>
      <trkpt lat="42.8755" lon="-0.0507">
        <ele>1528</ele>
        <time>2010-03-15T16:17:05Z</time>
      </trkpt>
      <trkpt lat="42.87558" lon="-0.0504">
        <ele>1518</ele>
        <time>2010-03-15T16:17:39Z</time>
      </trkpt>
      <trkpt lat="42.87572" lon="-0.05028">
        <ele>1511</ele>
        <time>2010-03-15T16:18:11Z</time>
      </trkpt>
      <trkpt lat="42.87587" lon="-0.05012">
        <ele>1507</ele>
        <time>2010-03-15T16:18:32Z</time>
      </trkpt>
      <trkpt lat="42.87593" lon="-0.04995">
        <ele>1501</ele>
        <time>2010-03-15T16:25:15Z</time>
      </trkpt>
      <trkpt lat="42.876" lon="-0.04975">
        <ele>1497</ele>
        <time>2010-03-15T16:25:44Z</time>
      </trkpt>
      <trkpt lat="42.8762" lon="-0.04965">
        <ele>1492</ele>
        <time>2010-03-15T16:27:23Z</time>
      </trkpt>
      <trkpt lat="42.87632" lon="-0.04932">
        <ele>1485</ele>
        <time>2010-03-15T16:27:46Z</time>
      </trkpt>
      <trkpt lat="42.87638" lon="-0.04903">
        <ele>1484</ele>
        <time>2010-03-15T16:28:04Z</time>
      </trkpt>
      <trkpt lat="42.87668" lon="-0.04882">
        <ele>1482</ele>
        <time>2010-03-15T16:28:47Z</time>
      </trkpt>
      <trkpt lat="42.87682" lon="-0.04863">
        <ele>1478</ele>
        <time>2010-03-15T16:29:03Z</time>
      </trkpt>
      <trkpt lat="42.87692" lon="-0.04843">
        <ele>1475</ele>
        <time>2010-03-15T16:29:15Z</time>
      </trkpt>
      <trkpt lat="42.87703" lon="-0.04813">
        <ele>1472</ele>
        <time>2010-03-15T16:29:38Z</time>
      </trkpt>
      <trkpt lat="42.87727" lon="-0.04757">
        <ele>1464</ele>
        <time>2010-03-15T16:30:18Z</time>
      </trkpt>
      <trkpt lat="42.87742" lon="-0.04717">
        <ele>1449</ele>
        <time>2010-03-15T16:31:02Z</time>
      </trkpt>
      <trkpt lat="42.87752" lon="-0.047">
        <ele>1443</ele>
        <time>2010-03-15T16:31:23Z</time>
      </trkpt>
      <trkpt lat="42.87767" lon="-0.04682">
        <ele>1432</ele>
        <time>2010-03-15T16:32:13Z</time>
      </trkpt>
      <trkpt lat="42.87773" lon="-0.04663">
        <ele>1425</ele>
        <time>2010-03-15T16:33:01Z</time>
      </trkpt>
      <trkpt lat="42.87778" lon="-0.0464">
        <ele>1417</ele>
        <time>2010-03-15T16:33:29Z</time>
      </trkpt>
      <trkpt lat="42.87757" lon="-0.04647">
        <ele>1413</ele>
        <time>2010-03-15T16:34:21Z</time>
      </trkpt>
      <trkpt lat="42.87737" lon="-0.0464">
        <ele>1410</ele>
        <time>2010-03-15T16:34:35Z</time>
      </trkpt>
      <trkpt lat="42.87703" lon="-0.04657">
        <ele>1406</ele>
        <time>2010-03-15T16:35:02Z</time>
      </trkpt>
      <trkpt lat="42.87672" lon="-0.04703">
        <ele>1404</ele>
        <time>2010-03-15T16:35:40Z</time>
      </trkpt>
      <trkpt lat="42.8766" lon="-0.04735">
        <ele>1403</ele>
        <time>2010-03-15T16:36:01Z</time>
      </trkpt>
      <trkpt lat="42.87668" lon="-0.047">
        <ele>1411</ele>
        <time>2010-03-15T16:36:37Z</time>
      </trkpt>
      <trkpt lat="42.87685" lon="-0.0466">
        <ele>1411</ele>
        <time>2010-03-15T16:37:07Z</time>
      </trkpt>
      <trkpt lat="42.87708" lon="-0.0463">
        <ele>1412</ele>
        <time>2010-03-15T16:37:34Z</time>
      </trkpt>
      <trkpt lat="42.87723" lon="-0.04617">
        <ele>1412</ele>
        <time>2010-03-15T16:37:49Z</time>
      </trkpt>
      <trkpt lat="42.87687" lon="-0.0463">
        <ele>1400</ele>
        <time>2010-03-15T16:38:24Z</time>
      </trkpt>
      <trkpt lat="42.8761" lon="-0.04722">
        <ele>1391</ele>
        <time>2010-03-15T16:39:49Z</time>
      </trkpt>
      <trkpt lat="42.87595" lon="-0.04737">
        <ele>1392</ele>
        <time>2010-03-15T16:40:06Z</time>
      </trkpt>
      <trkpt lat="42.87583" lon="-0.04732">
        <ele>1394</ele>
        <time>2010-03-15T16:40:22Z</time>
      </trkpt>
      <trkpt lat="42.87603" lon="-0.0471">
        <ele>1402</ele>
        <time>2010-03-15T16:40:47Z</time>
      </trkpt>
      <trkpt lat="42.8762" lon="-0.04675">
        <ele>1381</ele>
        <time>2010-03-15T16:42:38Z</time>
      </trkpt>
      <trkpt lat="42.87635" lon="-0.04635">
        <ele>1379</ele>
        <time>2010-03-15T16:42:53Z</time>
      </trkpt>
      <trkpt lat="42.87635" lon="-0.04607">
        <ele>1379</ele>
        <time>2010-03-15T16:43:01Z</time>
      </trkpt>
      <trkpt lat="42.87638" lon="-0.0463">
        <ele>1372</ele>
        <time>2010-03-15T16:44:36Z</time>
      </trkpt>
      <trkpt lat="42.87632" lon="-0.04612">
        <ele>1372</ele>
        <time>2010-03-15T16:45:04Z</time>
      </trkpt>
      <trkpt lat="42.87653" lon="-0.04572">
        <ele>1369</ele>
        <time>2010-03-15T16:45:39Z</time>
      </trkpt>
      <trkpt lat="42.87683" lon="-0.04513">
        <ele>1360</ele>
        <time>2010-03-15T16:45:49Z</time>
      </trkpt>
      <trkpt lat="42.87685" lon="-0.04425">
        <ele>1349</ele>
        <time>2010-03-15T16:46:02Z</time>
      </trkpt>
      <trkpt lat="42.87675" lon="-0.04353">
        <ele>1342</ele>
        <time>2010-03-15T16:46:11Z</time>
      </trkpt>
      <trkpt lat="42.87652" lon="-0.04268">
        <ele>1333</ele>
        <time>2010-03-15T16:46:22Z</time>
      </trkpt>
      <trkpt lat="42.87642" lon="-0.04198">
        <ele>1326</ele>
        <time>2010-03-15T16:46:30Z</time>
      </trkpt>
      <trkpt lat="42.87648" lon="-0.04138">
        <ele>1319</ele>
        <time>2010-03-15T16:46:37Z</time>
      </trkpt>
      <trkpt lat="42.87653" lon="-0.04048">
        <ele>1310</ele>
        <time>2010-03-15T16:46:48Z</time>
      </trkpt>
      <trkpt lat="42.87662" lon="-0.04028">
        <ele>1312</ele>
        <time>2010-03-15T16:46:54Z</time>
      </trkpt>
      <trkpt lat="42.87678" lon="-0.04002">
        <ele>1308</ele>
        <time>2010-03-15T16:47:19Z</time>
      </trkpt>
      <trkpt lat="42.87687" lon="-0.0399">
        <ele>1309</ele>
        <time>2010-03-15T16:47:35Z</time>
      </trkpt>
      <trkpt lat="42.87685" lon="-0.03947">
        <ele>1311</ele>
        <time>2010-03-15T16:48:05Z</time>
      </trkpt>
      <trkpt lat="42.87683" lon="-0.0393">
        <ele>1308</ele>
        <time>2010-03-15T16:48:23Z</time>
      </trkpt>
      <trkpt lat="42.87688" lon="-0.03877">
        <ele>1308</ele>
        <time>2010-03-15T16:48:52Z</time>
      </trkpt>
      <trkpt lat="42.87698" lon="-0.03833">
        <ele>1311</ele>
        <time>2010-03-15T16:49:16Z</time>
      </trkpt>
      <trkpt lat="42.87715" lon="-0.03813">
        <ele>1314</ele>
        <time>2010-03-15T16:49:33Z</time>
      </trkpt>
      <trkpt lat="42.87728" lon="-0.03787">
        <ele>1319</ele>
        <time>2010-03-15T16:49:52Z</time>
      </trkpt>
      <trkpt lat="42.87743" lon="-0.03753">
        <ele>1318</ele>
        <time>2010-03-15T16:50:14Z</time>
      </trkpt>
      <trkpt lat="42.87755" lon="-0.03722">
        <ele>1318</ele>
        <time>2010-03-15T16:50:38Z</time>
      </trkpt>
      <trkpt lat="42.87768" lon="-0.03702">
        <ele>1317</ele>
        <time>2010-03-15T16:50:56Z</time>
      </trkpt>
      <trkpt lat="42.87777" lon="-0.03675">
        <ele>1316</ele>
        <time>2010-03-15T16:51:16Z</time>
      </trkpt>
      <trkpt lat="42.87798" lon="-0.03677">
        <ele>1293</ele>
        <time>2010-03-15T16:51:43Z</time>
      </trkpt>
      <trkpt lat="42.87822" lon="-0.03695">
        <ele>1276</ele>
        <time>2010-03-15T16:52:03Z</time>
      </trkpt>
      <trkpt lat="42.87838" lon="-0.03698">
        <ele>1267</ele>
        <time>2010-03-15T16:52:13Z</time>
      </trkpt>
      <trkpt lat="42.87857" lon="-0.03718">
        <ele>1256</ele>
        <time>2010-03-15T16:53:02Z</time>
      </trkpt>
    </trkseg>
  </trk>
</gpx>